sensor_id;sensor_type;location;lat;lon;timestamp;temperature;humidity
18733;DHT22;9495;51.210;2.934;2022-07-21T00:00:21;22.50;99.90
18733;DHT22;9495;51.210;2.934;2022-07-21T00:02:50;22.20;99.90
18733;DHT22;9495;51.210;2.934;2022-07-21T00:05:19;22.20;99.90
18733;DHT22;9495;51.210;2.934;2022-07-21T00:07:48;22.20;99.90
18733;DHT22;9495;51.210;2.934;2022-07-21T00:10:18;22.40;99.90
18733;DHT22;9495;51.210;2.934;2022-07-21T00:12:47;22.20;99.90
18733;DHT22;9495;51.210;2.934;2022-07-21T00:15:17;22.30;99.90
18733;DHT22;9495;51.210;2.934;2022-07-21T00:17:46;22.20;99.90
18733;DHT22;9495;51.210;2.934;2022-07-21T00:20:15;22.10;99.90
18733;DHT22;9495;51.210;2.934;2022-07-21T00:22:44;22.10;99.90
18733;DHT22;9495;51.210;2.934;2022-07-21T00:25:13;22.10;99.90
18733;DHT22;9495;51.210;2.934;2022-07-21T00:27:43;22.20;99.90
18733;DHT22;9495;51.210;2.934;2022-07-21T00:30:13;22.40;99.90
18733;DHT22;9495;51.210;2.934;2022-07-21T00:32:42;22.20;99.90
18733;DHT22;9495;51.210;2.934;2022-07-21T00:35:11;22.40;99.90
18733;DHT22;9495;51.210;2.934;2022-07-21T00:37:40;22.60;99.90
18733;DHT22;9495;51.210;2.934;2022-07-21T00:40:09;22.30;99.90
18733;DHT22;9495;51.210;2.934;2022-07-21T00:42:38;22.30;99.90
18733;DHT22;9495;51.210;2.934;2022-07-21T00:45:09;22.10;99.90
18733;DHT22;9495;51.210;2.934;2022-07-21T00:47:38;22.00;99.90
18733;DHT22;9495;51.210;2.934;2022-07-21T00:50:09;21.90;99.90
18733;DHT22;9495;51.210;2.934;2022-07-21T00:52:38;22.10;99.90
18733;DHT22;9495;51.210;2.934;2022-07-21T00:55:07;21.90;99.90
18733;DHT22;9495;51.210;2.934;2022-07-21T00:57:36;22.30;99.90
18733;DHT22;9495;51.210;2.934;2022-07-21T01:00:07;22.10;99.90
18733;DHT22;9495;51.210;2.934;2022-07-21T01:02:37;22.00;99.90
18733;DHT22;9495;51.210;2.934;2022-07-21T01:05:09;22.10;99.90
18733;DHT22;9495;51.210;2.934;2022-07-21T01:07:40;22.00;99.90
18733;DHT22;9495;51.210;2.934;2022-07-21T01:10:09;22.00;99.90
18733;DHT22;9495;51.210;2.934;2022-07-21T01:12:38;22.00;99.90
18733;DHT22;9495;51.210;2.934;2022-07-21T01:15:08;21.90;99.90
18733;DHT22;9495;51.210;2.934;2022-07-21T01:17:38;21.80;99.90
18733;DHT22;9495;51.210;2.934;2022-07-21T01:20:10;21.70;99.90
18733;DHT22;9495;51.210;2.934;2022-07-21T01:22:41;21.60;99.90
18733;DHT22;9495;51.210;2.934;2022-07-21T01:25:10;21.60;99.90
18733;DHT22;9495;51.210;2.934;2022-07-21T01:27:39;21.50;99.90
18733;DHT22;9495;51.210;2.934;2022-07-21T01:30:09;21.50;99.90
18733;DHT22;9495;51.210;2.934;2022-07-21T01:32:38;21.60;99.90
18733;DHT22;9495;51.210;2.934;2022-07-21T01:35:08;21.60;99.90
18733;DHT22;9495;51.210;2.934;2022-07-21T01:37:41;21.60;99.90
18733;DHT22;9495;51.210;2.934;2022-07-21T01:40:10;21.90;99.90
18733;DHT22;9495;51.210;2.934;2022-07-21T01:42:55;21.80;99.90
18733;DHT22;9495;51.210;2.934;2022-07-21T01:45:26;21.80;99.90
18733;DHT22;9495;51.210;2.934;2022-07-21T01:47:55;21.80;99.90
18733;DHT22;9495;51.210;2.934;2022-07-21T01:50:23;21.80;99.90
18733;DHT22;9495;51.210;2.934;2022-07-21T01:52:56;21.80;99.90
18733;DHT22;9495;51.210;2.934;2022-07-21T01:55:26;22.10;99.90
18733;DHT22;9495;51.210;2.934;2022-07-21T01:57:56;22.00;99.90
18733;DHT22;9495;51.210;2.934;2022-07-21T02:00:24;22.10;99.90
18733;DHT22;9495;51.210;2.934;2022-07-21T02:02:53;22.60;99.90
18733;DHT22;9495;51.210;2.934;2022-07-21T02:05:21;22.60;99.90
18733;DHT22;9495;51.210;2.934;2022-07-21T02:07:50;22.70;99.90
18733;DHT22;9495;51.210;2.934;2022-07-21T02:10:20;22.50;99.90
18733;DHT22;9495;51.210;2.934;2022-07-21T02:12:48;22.40;99.90
18733;DHT22;9495;51.210;2.934;2022-07-21T02:15:17;22.30;99.90
18733;DHT22;9495;51.210;2.934;2022-07-21T02:17:46;22.40;99.90
18733;DHT22;9495;51.210;2.934;2022-07-21T02:20:14;22.30;99.90
18733;DHT22;9495;51.210;2.934;2022-07-21T02:22:42;22.40;99.90
18733;DHT22;9495;51.210;2.934;2022-07-21T02:25:12;22.50;99.90
18733;DHT22;9495;51.210;2.934;2022-07-21T02:27:42;22.40;99.90
18733;DHT22;9495;51.210;2.934;2022-07-21T02:30:13;21.90;99.90
18733;DHT22;9495;51.210;2.934;2022-07-21T02:32:41;21.80;99.90
18733;DHT22;9495;51.210;2.934;2022-07-21T02:35:10;21.80;99.90
18733;DHT22;9495;51.210;2.934;2022-07-21T02:37:39;21.60;99.90
18733;DHT22;9495;51.210;2.934;2022-07-21T02:40:08;21.50;99.90
18733;DHT22;9495;51.210;2.934;2022-07-21T02:42:37;21.50;99.90
18733;DHT22;9495;51.210;2.934;2022-07-21T02:45:09;21.50;99.90
18733;DHT22;9495;51.210;2.934;2022-07-21T02:47:48;21.30;99.90
18733;DHT22;9495;51.210;2.934;2022-07-21T02:50:17;21.40;99.90
18733;DHT22;9495;51.210;2.934;2022-07-21T02:52:46;21.90;99.90
18733;DHT22;9495;51.210;2.934;2022-07-21T02:55:15;21.90;99.90
18733;DHT22;9495;51.210;2.934;2022-07-21T02:57:44;21.50;99.90
18733;DHT22;9495;51.210;2.934;2022-07-21T03:00:14;21.30;99.90
18733;DHT22;9495;51.210;2.934;2022-07-21T03:02:43;21.20;99.90
18733;DHT22;9495;51.210;2.934;2022-07-21T03:05:11;21.20;99.90
18733;DHT22;9495;51.210;2.934;2022-07-21T03:07:39;21.10;99.90
18733;DHT22;9495;51.210;2.934;2022-07-21T03:10:08;21.10;99.90
18733;DHT22;9495;51.210;2.934;2022-07-21T03:12:37;21.10;99.90
18733;DHT22;9495;51.210;2.934;2022-07-21T03:15:06;21.20;99.90
18733;DHT22;9495;51.210;2.934;2022-07-21T03:17:36;21.30;99.90
18733;DHT22;9495;51.210;2.934;2022-07-21T03:20:05;21.30;99.90
18733;DHT22;9495;51.210;2.934;2022-07-21T03:22:33;21.60;99.90
18733;DHT22;9495;51.210;2.934;2022-07-21T03:25:02;21.40;99.90
18733;DHT22;9495;51.210;2.934;2022-07-21T03:27:31;21.40;99.90
18733;DHT22;9495;51.210;2.934;2022-07-21T03:30:04;21.30;99.90
18733;DHT22;9495;51.210;2.934;2022-07-21T03:32:35;21.50;99.90
18733;DHT22;9495;51.210;2.934;2022-07-21T03:35:05;21.40;99.90
18733;DHT22;9495;51.210;2.934;2022-07-21T03:37:40;21.40;99.90
18733;DHT22;9495;51.210;2.934;2022-07-21T03:40:11;21.20;99.90
18733;DHT22;9495;51.210;2.934;2022-07-21T03:42:40;21.20;99.90
18733;DHT22;9495;51.210;2.934;2022-07-21T03:45:09;21.10;99.90
18733;DHT22;9495;51.210;2.934;2022-07-21T03:47:39;21.00;99.90
18733;DHT22;9495;51.210;2.934;2022-07-21T03:50:08;21.00;99.90
18733;DHT22;9495;51.210;2.934;2022-07-21T03:52:39;21.20;99.90
18733;DHT22;9495;51.210;2.934;2022-07-21T03:55:08;21.30;99.90
18733;DHT22;9495;51.210;2.934;2022-07-21T03:57:42;21.30;99.90
18733;DHT22;9495;51.210;2.934;2022-07-21T04:00:15;21.20;99.90
18733;DHT22;9495;51.210;2.934;2022-07-21T04:02:48;21.20;99.90
18733;DHT22;9495;51.210;2.934;2022-07-21T04:05:17;21.10;99.90
18733;DHT22;9495;51.210;2.934;2022-07-21T04:07:47;21.10;99.90
18733;DHT22;9495;51.210;2.934;2022-07-21T04:10:18;21.00;99.90
18733;DHT22;9495;51.210;2.934;2022-07-21T04:12:47;21.20;99.90
18733;DHT22;9495;51.210;2.934;2022-07-21T04:15:16;21.20;99.90
18733;DHT22;9495;51.210;2.934;2022-07-21T04:17:47;21.20;99.90
18733;DHT22;9495;51.210;2.934;2022-07-21T04:20:15;21.10;99.90
18733;DHT22;9495;51.210;2.934;2022-07-21T04:22:45;21.00;99.90
18733;DHT22;9495;51.210;2.934;2022-07-21T04:25:15;21.00;99.90
18733;DHT22;9495;51.210;2.934;2022-07-21T04:27:44;21.00;99.90
18733;DHT22;9495;51.210;2.934;2022-07-21T04:30:13;20.90;99.90
18733;DHT22;9495;51.210;2.934;2022-07-21T04:32:43;21.00;99.90
18733;DHT22;9495;51.210;2.934;2022-07-21T04:35:12;21.10;99.90
18733;DHT22;9495;51.210;2.934;2022-07-21T04:37:41;21.30;99.90
18733;DHT22;9495;51.210;2.934;2022-07-21T04:40:11;21.30;99.90
18733;DHT22;9495;51.210;2.934;2022-07-21T04:42:40;21.20;99.90
18733;DHT22;9495;51.210;2.934;2022-07-21T04:45:11;21.20;99.90
18733;DHT22;9495;51.210;2.934;2022-07-21T04:47:45;21.20;99.90
18733;DHT22;9495;51.210;2.934;2022-07-21T04:50:16;21.30;99.90
18733;DHT22;9495;51.210;2.934;2022-07-21T04:52:45;21.30;99.90
18733;DHT22;9495;51.210;2.934;2022-07-21T04:55:14;21.20;99.90
18733;DHT22;9495;51.210;2.934;2022-07-21T04:57:44;21.10;99.90
18733;DHT22;9495;51.210;2.934;2022-07-21T05:00:15;21.20;99.90
18733;DHT22;9495;51.210;2.934;2022-07-21T05:02:45;21.10;99.90
18733;DHT22;9495;51.210;2.934;2022-07-21T05:05:14;21.00;99.90
18733;DHT22;9495;51.210;2.934;2022-07-21T05:07:43;21.20;99.90
18733;DHT22;9495;51.210;2.934;2022-07-21T05:10:13;21.60;99.90
18733;DHT22;9495;51.210;2.934;2022-07-21T05:12:42;21.50;99.90
18733;DHT22;9495;51.210;2.934;2022-07-21T05:15:11;21.30;99.90
18733;DHT22;9495;51.210;2.934;2022-07-21T05:17:40;21.20;99.90
18733;DHT22;9495;51.210;2.934;2022-07-21T05:20:09;21.30;99.90
18733;DHT22;9495;51.210;2.934;2022-07-21T05:22:39;21.20;99.90
18733;DHT22;9495;51.210;2.934;2022-07-21T05:25:08;21.10;99.90
18733;DHT22;9495;51.210;2.934;2022-07-21T05:27:36;21.10;99.90
18733;DHT22;9495;51.210;2.934;2022-07-21T05:30:05;20.90;99.90
18733;DHT22;9495;51.210;2.934;2022-07-21T05:32:34;20.90;99.90
18733;DHT22;9495;51.210;2.934;2022-07-21T05:35:02;21.40;99.90
18733;DHT22;9495;51.210;2.934;2022-07-21T05:37:35;21.30;99.90
18733;DHT22;9495;51.210;2.934;2022-07-21T05:40:06;21.00;99.90
18733;DHT22;9495;51.210;2.934;2022-07-21T05:42:36;21.20;99.90
18733;DHT22;9495;51.210;2.934;2022-07-21T05:45:05;21.10;99.90
18733;DHT22;9495;51.210;2.934;2022-07-21T05:47:33;21.00;99.90
18733;DHT22;9495;51.210;2.934;2022-07-21T05:50:02;21.00;99.90
18733;DHT22;9495;51.210;2.934;2022-07-21T05:52:30;21.10;99.90
18733;DHT22;9495;51.210;2.934;2022-07-21T05:54:58;21.00;99.90
18733;DHT22;9495;51.210;2.934;2022-07-21T05:57:29;20.90;99.90
18733;DHT22;9495;51.210;2.934;2022-07-21T05:59:57;20.90;99.90
18733;DHT22;9495;51.210;2.934;2022-07-21T06:02:26;21.20;99.90
18733;DHT22;9495;51.210;2.934;2022-07-21T06:04:57;21.10;99.90
18733;DHT22;9495;51.210;2.934;2022-07-21T06:07:25;21.00;99.90
18733;DHT22;9495;51.210;2.934;2022-07-21T06:09:54;21.00;99.90
18733;DHT22;9495;51.210;2.934;2022-07-21T06:12:22;21.10;99.90
18733;DHT22;9495;51.210;2.934;2022-07-21T06:14:51;21.10;99.90
18733;DHT22;9495;51.210;2.934;2022-07-21T06:17:22;21.00;99.90
18733;DHT22;9495;51.210;2.934;2022-07-21T06:19:51;21.30;99.90
18733;DHT22;9495;51.210;2.934;2022-07-21T06:22:19;21.50;99.90
18733;DHT22;9495;51.210;2.934;2022-07-21T06:24:47;21.30;99.90
18733;DHT22;9495;51.210;2.934;2022-07-21T06:27:16;20.90;99.90
18733;DHT22;9495;51.210;2.934;2022-07-21T06:29:44;21.00;99.90
18733;DHT22;9495;51.210;2.934;2022-07-21T06:32:14;21.20;99.90
18733;DHT22;9495;51.210;2.934;2022-07-21T06:34:45;21.20;99.90
18733;DHT22;9495;51.210;2.934;2022-07-21T06:37:14;20.90;99.90
18733;DHT22;9495;51.210;2.934;2022-07-21T06:39:42;20.80;99.90
18733;DHT22;9495;51.210;2.934;2022-07-21T06:42:10;20.70;99.90
18733;DHT22;9495;51.210;2.934;2022-07-21T06:44:39;20.70;99.90
18733;DHT22;9495;51.210;2.934;2022-07-21T06:47:07;20.80;99.90
18733;DHT22;9495;51.210;2.934;2022-07-21T06:49:37;21.00;99.90
18733;DHT22;9495;51.210;2.934;2022-07-21T06:52:05;20.90;99.90
18733;DHT22;9495;51.210;2.934;2022-07-21T06:54:33;21.00;99.90
18733;DHT22;9495;51.210;2.934;2022-07-21T06:57:02;21.10;99.90
18733;DHT22;9495;51.210;2.934;2022-07-21T06:59:30;20.80;99.90
18733;DHT22;9495;51.210;2.934;2022-07-21T07:01:59;20.70;99.90
18733;DHT22;9495;51.210;2.934;2022-07-21T07:04:28;21.30;99.90
18733;DHT22;9495;51.210;2.934;2022-07-21T07:06:58;21.20;99.90
18733;DHT22;9495;51.210;2.934;2022-07-21T07:09:26;21.50;99.90
18733;DHT22;9495;51.210;2.934;2022-07-21T07:11:55;21.20;99.90
18733;DHT22;9495;51.210;2.934;2022-07-21T07:14:50;20.90;99.90
18733;DHT22;9495;51.210;2.934;2022-07-21T07:17:18;20.50;99.90
18733;DHT22;9495;51.210;2.934;2022-07-21T07:19:47;20.60;99.90
18733;DHT22;9495;51.210;2.934;2022-07-21T07:22:17;20.40;99.90
18733;DHT22;9495;51.210;2.934;2022-07-21T07:24:45;20.60;99.90
18733;DHT22;9495;51.210;2.934;2022-07-21T07:27:14;20.70;99.90
18733;DHT22;9495;51.210;2.934;2022-07-21T07:29:42;20.70;99.90
18733;DHT22;9495;51.210;2.934;2022-07-21T07:32:12;20.50;99.90
18733;DHT22;9495;51.210;2.934;2022-07-21T07:34:41;20.40;99.90
18733;DHT22;9495;51.210;2.934;2022-07-21T07:37:10;20.50;99.90
18733;DHT22;9495;51.210;2.934;2022-07-21T07:39:39;20.40;99.90
18733;DHT22;9495;51.210;2.934;2022-07-21T07:42:08;20.50;99.90
18733;DHT22;9495;51.210;2.934;2022-07-21T07:44:36;20.60;99.90
18733;DHT22;9495;51.210;2.934;2022-07-21T07:47:04;20.40;99.90
18733;DHT22;9495;51.210;2.934;2022-07-21T07:49:33;20.60;99.90
18733;DHT22;9495;51.210;2.934;2022-07-21T07:52:01;20.40;99.90
18733;DHT22;9495;51.210;2.934;2022-07-21T07:54:31;20.40;99.90
18733;DHT22;9495;51.210;2.934;2022-07-21T07:57:01;20.40;99.90
18733;DHT22;9495;51.210;2.934;2022-07-21T07:59:29;20.80;99.90
18733;DHT22;9495;51.210;2.934;2022-07-21T08:01:57;20.90;99.90
18733;DHT22;9495;51.210;2.934;2022-07-21T08:04:26;20.60;99.90
18733;DHT22;9495;51.210;2.934;2022-07-21T08:06:55;20.90;99.90
18733;DHT22;9495;51.210;2.934;2022-07-21T08:09:28;20.90;99.90
18733;DHT22;9495;51.210;2.934;2022-07-21T08:11:56;20.60;99.90
18733;DHT22;9495;51.210;2.934;2022-07-21T08:14:26;20.60;99.90
18733;DHT22;9495;51.210;2.934;2022-07-21T08:16:54;20.60;99.90
18733;DHT22;9495;51.210;2.934;2022-07-21T08:19:27;20.60;99.90
18733;DHT22;9495;51.210;2.934;2022-07-21T08:21:56;20.60;99.90
18733;DHT22;9495;51.210;2.934;2022-07-21T08:24:40;20.40;99.90
18733;DHT22;9495;51.210;2.934;2022-07-21T08:27:08;20.50;99.90
18733;DHT22;9495;51.210;2.934;2022-07-21T08:29:38;20.50;99.90
18733;DHT22;9495;51.210;2.934;2022-07-21T08:32:06;20.40;99.90
18733;DHT22;9495;51.210;2.934;2022-07-21T08:34:36;20.50;99.90
18733;DHT22;9495;51.210;2.934;2022-07-21T08:37:07;20.60;99.90
18733;DHT22;9495;51.210;2.934;2022-07-21T08:39:35;20.60;99.90
18733;DHT22;9495;51.210;2.934;2022-07-21T08:42:06;20.70;99.90
18733;DHT22;9495;51.210;2.934;2022-07-21T08:44:35;20.80;99.90
18733;DHT22;9495;51.210;2.934;2022-07-21T08:47:06;20.70;99.90
18733;DHT22;9495;51.210;2.934;2022-07-21T08:49:35;20.80;99.90
18733;DHT22;9495;51.210;2.934;2022-07-21T08:52:06;20.60;99.90
18733;DHT22;9495;51.210;2.934;2022-07-21T08:54:35;20.70;99.90
18733;DHT22;9495;51.210;2.934;2022-07-21T08:57:03;20.60;99.90
18733;DHT22;9495;51.210;2.934;2022-07-21T08:59:32;20.60;99.90
18733;DHT22;9495;51.210;2.934;2022-07-21T09:02:01;20.50;99.90
18733;DHT22;9495;51.210;2.934;2022-07-21T09:04:33;20.60;99.90
18733;DHT22;9495;51.210;2.934;2022-07-21T09:07:06;20.70;99.90
18733;DHT22;9495;51.210;2.934;2022-07-21T09:09:35;20.80;99.90
18733;DHT22;9495;51.210;2.934;2022-07-21T09:12:06;20.80;99.90
18733;DHT22;9495;51.210;2.934;2022-07-21T09:14:35;20.90;99.90
18733;DHT22;9495;51.210;2.934;2022-07-21T09:17:04;20.60;99.90
18733;DHT22;9495;51.210;2.934;2022-07-21T09:19:37;21.00;99.90
18733;DHT22;9495;51.210;2.934;2022-07-21T09:22:13;21.20;99.90
18733;DHT22;9495;51.210;2.934;2022-07-21T09:24:48;21.10;99.90
18733;DHT22;9495;51.210;2.934;2022-07-21T09:27:17;21.10;99.90
18733;DHT22;9495;51.210;2.934;2022-07-21T09:29:48;21.30;99.90
18733;DHT22;9495;51.210;2.934;2022-07-21T09:32:22;21.20;99.90
18733;DHT22;9495;51.210;2.934;2022-07-21T09:34:54;21.20;99.90
18733;DHT22;9495;51.210;2.934;2022-07-21T09:37:26;21.10;99.90
18733;DHT22;9495;51.210;2.934;2022-07-21T09:39:56;21.00;99.90
18733;DHT22;9495;51.210;2.934;2022-07-21T09:42:27;21.00;99.90
18733;DHT22;9495;51.210;2.934;2022-07-21T09:44:57;21.00;99.90
18733;DHT22;9495;51.210;2.934;2022-07-21T09:47:28;21.20;99.90
18733;DHT22;9495;51.210;2.934;2022-07-21T09:49:59;21.50;99.90
18733;DHT22;9495;51.210;2.934;2022-07-21T09:52:47;21.50;99.90
18733;DHT22;9495;51.210;2.934;2022-07-21T09:55:17;21.30;99.90
18733;DHT22;9495;51.210;2.934;2022-07-21T09:57:45;21.20;99.90
18733;DHT22;9495;51.210;2.934;2022-07-21T10:00:16;21.30;99.90
18733;DHT22;9495;51.210;2.934;2022-07-21T10:02:46;21.70;99.90
18733;DHT22;9495;51.210;2.934;2022-07-21T10:05:19;21.40;99.90
18733;DHT22;9495;51.210;2.934;2022-07-21T10:07:57;21.40;99.90
18733;DHT22;9495;51.210;2.934;2022-07-21T10:10:28;21.30;99.90
18733;DHT22;9495;51.210;2.934;2022-07-21T10:13:17;21.20;99.90
18733;DHT22;9495;51.210;2.934;2022-07-21T10:15:46;21.70;99.90
18733;DHT22;9495;51.210;2.934;2022-07-21T10:18:16;21.70;99.90
18733;DHT22;9495;51.210;2.934;2022-07-21T10:20:53;21.50;99.90
18733;DHT22;9495;51.210;2.934;2022-07-21T10:23:33;21.40;99.90
18733;DHT22;9495;51.210;2.934;2022-07-21T10:26:02;21.60;99.90
18733;DHT22;9495;51.210;2.934;2022-07-21T10:28:33;21.50;99.90
18733;DHT22;9495;51.210;2.934;2022-07-21T10:31:14;21.50;99.90
18733;DHT22;9495;51.210;2.934;2022-07-21T10:33:54;21.30;99.90
18733;DHT22;9495;51.210;2.934;2022-07-21T10:36:55;21.60;99.90
18733;DHT22;9495;51.210;2.934;2022-07-21T10:39:25;21.50;99.90
18733;DHT22;9495;51.210;2.934;2022-07-21T10:41:56;21.60;99.90
18733;DHT22;9495;51.210;2.934;2022-07-21T10:44:42;21.80;99.90
18733;DHT22;9495;51.210;2.934;2022-07-21T10:47:12;21.90;99.90
18733;DHT22;9495;51.210;2.934;2022-07-21T10:50:00;22.00;99.90
18733;DHT22;9495;51.210;2.934;2022-07-21T10:53:00;21.70;99.90
18733;DHT22;9495;51.210;2.934;2022-07-21T10:55:30;21.80;99.90
18733;DHT22;9495;51.210;2.934;2022-07-21T10:58:15;21.70;99.90
18733;DHT22;9495;51.210;2.934;2022-07-21T11:00:46;22.00;99.90
18733;DHT22;9495;51.210;2.934;2022-07-21T11:03:20;21.90;99.90
18733;DHT22;9495;51.210;2.934;2022-07-21T11:06:12;21.70;99.90
18733;DHT22;9495;51.210;2.934;2022-07-21T11:08:43;21.60;99.90
18733;DHT22;9495;51.210;2.934;2022-07-21T11:11:12;21.60;99.90
18733;DHT22;9495;51.210;2.934;2022-07-21T11:14:08;22.20;99.90
18733;DHT22;9495;51.210;2.934;2022-07-21T11:16:57;22.30;99.90
18733;DHT22;9495;51.210;2.934;2022-07-21T11:19:41;22.50;99.90
18733;DHT22;9495;51.210;2.934;2022-07-21T11:22:12;22.70;99.90
18733;DHT22;9495;51.210;2.934;2022-07-21T11:24:44;22.80;99.90
18733;DHT22;9495;51.210;2.934;2022-07-21T11:27:14;22.40;99.90
18733;DHT22;9495;51.210;2.934;2022-07-21T11:29:44;22.10;99.90
18733;DHT22;9495;51.210;2.934;2022-07-21T11:32:14;22.20;99.90
18733;DHT22;9495;51.210;2.934;2022-07-21T11:34:45;22.20;99.90
18733;DHT22;9495;51.210;2.934;2022-07-21T11:37:15;22.10;99.90
18733;DHT22;9495;51.210;2.934;2022-07-21T11:40:07;22.20;99.90
18733;DHT22;9495;51.210;2.934;2022-07-21T11:42:37;22.40;99.90
18733;DHT22;9495;51.210;2.934;2022-07-21T11:45:07;22.10;99.90
18733;DHT22;9495;51.210;2.934;2022-07-21T11:47:36;22.50;99.90
18733;DHT22;9495;51.210;2.934;2022-07-21T11:50:06;22.50;99.90
18733;DHT22;9495;51.210;2.934;2022-07-21T11:52:36;22.30;99.90
18733;DHT22;9495;51.210;2.934;2022-07-21T11:55:09;22.20;99.90
18733;DHT22;9495;51.210;2.934;2022-07-21T11:57:41;22.20;99.90
18733;DHT22;9495;51.210;2.934;2022-07-21T12:00:11;22.30;99.90
18733;DHT22;9495;51.210;2.934;2022-07-21T12:02:40;22.30;99.90
18733;DHT22;9495;51.210;2.934;2022-07-21T12:05:09;22.40;99.90
18733;DHT22;9495;51.210;2.934;2022-07-21T12:07:39;22.50;99.90
18733;DHT22;9495;51.210;2.934;2022-07-21T12:10:11;22.70;99.90
18733;DHT22;9495;51.210;2.934;2022-07-21T12:12:41;22.50;99.90
18733;DHT22;9495;51.210;2.934;2022-07-21T12:15:14;22.50;99.90
18733;DHT22;9495;51.210;2.934;2022-07-21T12:17:44;22.40;99.90
18733;DHT22;9495;51.210;2.934;2022-07-21T12:20:14;22.50;99.90
18733;DHT22;9495;51.210;2.934;2022-07-21T12:22:45;22.50;99.90
18733;DHT22;9495;51.210;2.934;2022-07-21T12:25:16;22.40;99.90
18733;DHT22;9495;51.210;2.934;2022-07-21T12:27:46;22.40;99.90
18733;DHT22;9495;51.210;2.934;2022-07-21T12:30:34;22.70;99.90
18733;DHT22;9495;51.210;2.934;2022-07-21T12:33:06;22.50;99.90
18733;DHT22;9495;51.210;2.934;2022-07-21T12:35:35;22.40;99.90
18733;DHT22;9495;51.210;2.934;2022-07-21T12:38:07;22.70;99.90
18733;DHT22;9495;51.210;2.934;2022-07-21T12:40:39;22.60;99.90
18733;DHT22;9495;51.210;2.934;2022-07-21T12:43:28;22.70;99.90
18733;DHT22;9495;51.210;2.934;2022-07-21T12:45:59;22.50;99.90
18733;DHT22;9495;51.210;2.934;2022-07-21T12:48:29;22.80;99.90
18733;DHT22;9495;51.210;2.934;2022-07-21T12:51:05;23.00;99.90
18733;DHT22;9495;51.210;2.934;2022-07-21T12:53:35;23.00;99.90
18733;DHT22;9495;51.210;2.934;2022-07-21T12:56:05;22.90;99.90
18733;DHT22;9495;51.210;2.934;2022-07-21T12:58:34;22.80;99.90
18733;DHT22;9495;51.210;2.934;2022-07-21T13:01:03;22.80;99.90
18733;DHT22;9495;51.210;2.934;2022-07-21T13:03:33;22.70;99.90
18733;DHT22;9495;51.210;2.934;2022-07-21T13:06:03;22.50;99.90
18733;DHT22;9495;51.210;2.934;2022-07-21T13:08:36;22.70;99.90
18733;DHT22;9495;51.210;2.934;2022-07-21T13:11:07;22.50;99.90
18733;DHT22;9495;51.210;2.934;2022-07-21T13:13:36;22.90;99.90
18733;DHT22;9495;51.210;2.934;2022-07-21T13:16:05;22.80;99.90
18733;DHT22;9495;51.210;2.934;2022-07-21T13:18:34;22.80;99.90
18733;DHT22;9495;51.210;2.934;2022-07-21T13:21:03;22.70;99.90
18733;DHT22;9495;51.210;2.934;2022-07-21T13:23:32;22.60;99.90
18733;DHT22;9495;51.210;2.934;2022-07-21T13:26:01;23.10;99.90
18733;DHT22;9495;51.210;2.934;2022-07-21T13:28:34;23.20;99.90
18733;DHT22;9495;51.210;2.934;2022-07-21T13:31:05;23.00;99.90
18733;DHT22;9495;51.210;2.934;2022-07-21T13:33:35;22.80;99.90
18733;DHT22;9495;51.210;2.934;2022-07-21T13:36:05;23.00;99.90
18733;DHT22;9495;51.210;2.934;2022-07-21T13:38:34;23.20;99.90
18733;DHT22;9495;51.210;2.934;2022-07-21T13:41:03;22.90;99.90
18733;DHT22;9495;51.210;2.934;2022-07-21T13:43:53;22.90;99.90
18733;DHT22;9495;51.210;2.934;2022-07-21T13:46:22;23.60;99.90
18733;DHT22;9495;51.210;2.934;2022-07-21T13:48:51;22.90;99.90
18733;DHT22;9495;51.210;2.934;2022-07-21T13:51:20;22.90;99.90
18733;DHT22;9495;51.210;2.934;2022-07-21T13:53:51;22.10;99.90
18733;DHT22;9495;51.210;2.934;2022-07-21T13:56:20;22.50;99.90
18733;DHT22;9495;51.210;2.934;2022-07-21T13:58:49;23.10;99.90
18733;DHT22;9495;51.210;2.934;2022-07-21T14:01:19;22.10;99.90
18733;DHT22;9495;51.210;2.934;2022-07-21T14:03:48;22.70;99.90
18733;DHT22;9495;51.210;2.934;2022-07-21T14:06:19;23.00;99.90
18733;DHT22;9495;51.210;2.934;2022-07-21T14:08:47;23.20;99.90
18733;DHT22;9495;51.210;2.934;2022-07-21T14:11:16;23.30;99.90
18733;DHT22;9495;51.210;2.934;2022-07-21T14:13:44;23.60;99.90
18733;DHT22;9495;51.210;2.934;2022-07-21T14:16:12;23.90;99.90
18733;DHT22;9495;51.210;2.934;2022-07-21T14:18:42;23.70;99.90
18733;DHT22;9495;51.210;2.934;2022-07-21T14:21:11;23.60;99.90
18733;DHT22;9495;51.210;2.934;2022-07-21T14:23:40;23.30;99.90
18733;DHT22;9495;51.210;2.934;2022-07-21T14:26:09;23.00;99.90
18733;DHT22;9495;51.210;2.934;2022-07-21T14:28:37;22.60;99.90
18733;DHT22;9495;51.210;2.934;2022-07-21T14:31:06;22.60;99.90
18733;DHT22;9495;51.210;2.934;2022-07-21T14:33:34;23.00;99.90
18733;DHT22;9495;51.210;2.934;2022-07-21T14:36:04;22.30;99.90
18733;DHT22;9495;51.210;2.934;2022-07-21T14:38:33;22.40;99.90
18733;DHT22;9495;51.210;2.934;2022-07-21T14:41:01;21.60;99.90
18733;DHT22;9495;51.210;2.934;2022-07-21T14:43:30;22.20;99.90
18733;DHT22;9495;51.210;2.934;2022-07-21T14:45:59;22.30;99.90
18733;DHT22;9495;51.210;2.934;2022-07-21T14:48:28;22.80;99.90
18733;DHT22;9495;51.210;2.934;2022-07-21T14:50:56;22.80;99.90
18733;DHT22;9495;51.210;2.934;2022-07-21T14:53:26;22.60;99.90
18733;DHT22;9495;51.210;2.934;2022-07-21T14:55:54;22.40;99.90
18733;DHT22;9495;51.210;2.934;2022-07-21T14:58:23;22.30;99.90
18733;DHT22;9495;51.210;2.934;2022-07-21T15:00:51;22.90;99.90
18733;DHT22;9495;51.210;2.934;2022-07-21T15:03:20;22.70;99.90
18733;DHT22;9495;51.210;2.934;2022-07-21T15:05:48;22.70;99.90
18733;DHT22;9495;51.210;2.934;2022-07-21T15:08:17;23.10;99.90
18733;DHT22;9495;51.210;2.934;2022-07-21T15:10:46;23.30;99.90
18733;DHT22;9495;51.210;2.934;2022-07-21T15:13:16;23.80;99.90
18733;DHT22;9495;51.210;2.934;2022-07-21T15:15:44;23.60;99.90
18733;DHT22;9495;51.210;2.934;2022-07-21T15:18:14;23.50;99.90
18733;DHT22;9495;51.210;2.934;2022-07-21T15:20:43;23.60;99.90
18733;DHT22;9495;51.210;2.934;2022-07-21T15:23:12;23.10;99.90
18733;DHT22;9495;51.210;2.934;2022-07-21T15:25:40;23.10;99.90
18733;DHT22;9495;51.210;2.934;2022-07-21T15:28:10;23.40;99.90
18733;DHT22;9495;51.210;2.934;2022-07-21T15:30:38;23.40;99.90
18733;DHT22;9495;51.210;2.934;2022-07-21T15:33:07;23.10;99.90
18733;DHT22;9495;51.210;2.934;2022-07-21T15:35:35;22.40;99.90
18733;DHT22;9495;51.210;2.934;2022-07-21T15:38:04;22.50;99.90
18733;DHT22;9495;51.210;2.934;2022-07-21T15:40:39;22.70;99.90
18733;DHT22;9495;51.210;2.934;2022-07-21T15:43:10;22.40;99.90
18733;DHT22;9495;51.210;2.934;2022-07-21T15:45:38;22.70;99.90
18733;DHT22;9495;51.210;2.934;2022-07-21T15:48:08;22.80;99.90
18733;DHT22;9495;51.210;2.934;2022-07-21T15:50:37;22.50;99.90
18733;DHT22;9495;51.210;2.934;2022-07-21T15:53:05;22.20;99.90
18733;DHT22;9495;51.210;2.934;2022-07-21T15:55:34;22.50;99.90
18733;DHT22;9495;51.210;2.934;2022-07-21T15:58:03;22.10;99.90
18733;DHT22;9495;51.210;2.934;2022-07-21T16:00:32;22.60;99.90
18733;DHT22;9495;51.210;2.934;2022-07-21T16:03:01;22.70;99.90
18733;DHT22;9495;51.210;2.934;2022-07-21T16:05:29;22.40;99.90